Terminal Aerodrome Forecast
Issued by NWS Shreveport, LA

Home | Current Version | Previous Version | Text Only | Print | Product List | Glossary On
Versions: 1 2 3 4 5 6 7 8 9 10 11 12 13
000
FTUS44 KSHV 250521
TAFELD
TAF
KELD 250521Z 2506/2606 00000KT P6SM FEW050 BKN090 WS010/19020KT
      TEMPO 2511/2513 4SM BR OVC007
     FM251600 17009KT P6SM BKN025 BKN250
     FM252100 16011KT P6SM BKN035=

USA.gov is the U.S. government's official web portal to all federal, state and local government web resources and services.